sensor_id;sensor_type;location;lat;lon;timestamp;P1;durP1;ratioP1;P2;durP2;ratioP2
24859;SDS011;12936;52.006;4.350;2024-01-25T00:02:05;36.40;;;6.03;;
24859;SDS011;12936;52.006;4.350;2024-01-25T00:04:34;28.17;;;5.13;;
24859;SDS011;12936;52.006;4.350;2024-01-25T00:07:07;35.57;;;5.03;;
24859;SDS011;12936;52.006;4.350;2024-01-25T00:09:39;41.23;;;5.87;;
24859;SDS011;12936;52.006;4.350;2024-01-25T00:12:08;34.13;;;4.93;;
24859;SDS011;12936;52.006;4.350;2024-01-25T00:14:36;36.77;;;5.27;;
24859;SDS011;12936;52.006;4.350;2024-01-25T00:17:05;38.67;;;6.47;;
24859;SDS011;12936;52.006;4.350;2024-01-25T00:19:34;31.23;;;4.83;;
24859;SDS011;12936;52.006;4.350;2024-01-25T00:22:05;35.70;;;5.60;;
24859;SDS011;12936;52.006;4.350;2024-01-25T00:24:34;36.20;;;5.90;;
24859;SDS011;12936;52.006;4.350;2024-01-25T00:27:05;41.57;;;5.40;;
24859;SDS011;12936;52.006;4.350;2024-01-25T00:29:35;38.17;;;6.40;;
24859;SDS011;12936;52.006;4.350;2024-01-25T00:32:06;36.23;;;5.40;;
24859;SDS011;12936;52.006;4.350;2024-01-25T00:34:36;34.50;;;5.30;;
24859;SDS011;12936;52.006;4.350;2024-01-25T00:37:05;39.97;;;6.30;;
24859;SDS011;12936;52.006;4.350;2024-01-25T00:39:34;36.77;;;5.73;;
24859;SDS011;12936;52.006;4.350;2024-01-25T00:42:08;33.70;;;4.90;;
24859;SDS011;12936;52.006;4.350;2024-01-25T00:44:41;39.07;;;5.37;;
24859;SDS011;12936;52.006;4.350;2024-01-25T00:47:30;33.23;;;5.60;;
24859;SDS011;12936;52.006;4.350;2024-01-25T00:49:59;32.27;;;4.73;;
24859;SDS011;12936;52.006;4.350;2024-01-25T00:52:29;37.43;;;5.70;;
24859;SDS011;12936;52.006;4.350;2024-01-25T00:54:58;39.00;;;5.87;;
24859;SDS011;12936;52.006;4.350;2024-01-25T00:57:29;34.70;;;5.90;;
24859;SDS011;12936;52.006;4.350;2024-01-25T00:59:58;42.10;;;5.33;;
24859;SDS011;12936;52.006;4.350;2024-01-25T01:02:28;31.17;;;5.17;;
24859;SDS011;12936;52.006;4.350;2024-01-25T01:04:59;36.53;;;5.43;;
24859;SDS011;12936;52.006;4.350;2024-01-25T01:07:28;28.17;;;5.20;;
24859;SDS011;12936;52.006;4.350;2024-01-25T01:09:58;40.63;;;6.33;;
24859;SDS011;12936;52.006;4.350;2024-01-25T01:12:26;35.20;;;5.67;;
24859;SDS011;12936;52.006;4.350;2024-01-25T01:14:59;33.70;;;5.67;;
24859;SDS011;12936;52.006;4.350;2024-01-25T01:17:27;42.07;;;6.17;;
24859;SDS011;12936;52.006;4.350;2024-01-25T01:19:56;36.83;;;4.57;;
24859;SDS011;12936;52.006;4.350;2024-01-25T01:22:24;32.13;;;6.50;;
24859;SDS011;12936;52.006;4.350;2024-01-25T01:24:53;37.57;;;5.43;;
24859;SDS011;12936;52.006;4.350;2024-01-25T01:27:21;31.33;;;5.30;;
24859;SDS011;12936;52.006;4.350;2024-01-25T01:29:52;49.73;;;6.30;;
24859;SDS011;12936;52.006;4.350;2024-01-25T01:32:20;39.13;;;6.00;;
24859;SDS011;12936;52.006;4.350;2024-01-25T01:34:49;40.23;;;5.93;;
24859;SDS011;12936;52.006;4.350;2024-01-25T01:37:18;36.53;;;5.90;;
24859;SDS011;12936;52.006;4.350;2024-01-25T01:39:47;32.83;;;5.13;;
24859;SDS011;12936;52.006;4.350;2024-01-25T01:42:16;42.17;;;6.07;;
24859;SDS011;12936;52.006;4.350;2024-01-25T01:44:46;47.87;;;6.83;;
24859;SDS011;12936;52.006;4.350;2024-01-25T01:47:17;41.20;;;6.70;;
24859;SDS011;12936;52.006;4.350;2024-01-25T01:49:46;40.13;;;5.60;;
24859;SDS011;12936;52.006;4.350;2024-01-25T01:52:35;36.93;;;5.73;;
24859;SDS011;12936;52.006;4.350;2024-01-25T01:55:04;32.40;;;5.63;;
24859;SDS011;12936;52.006;4.350;2024-01-25T01:57:34;34.67;;;5.93;;
24859;SDS011;12936;52.006;4.350;2024-01-25T02:00:05;36.60;;;5.47;;
24859;SDS011;12936;52.006;4.350;2024-01-25T02:02:39;37.83;;;6.37;;
24859;SDS011;12936;52.006;4.350;2024-01-25T02:05:08;34.90;;;5.50;;
24859;SDS011;12936;52.006;4.350;2024-01-25T02:07:37;30.57;;;5.13;;
24859;SDS011;12936;52.006;4.350;2024-01-25T02:10:25;37.53;;;6.17;;
24859;SDS011;12936;52.006;4.350;2024-01-25T02:12:54;37.37;;;5.63;;
24859;SDS011;12936;52.006;4.350;2024-01-25T02:15:22;35.50;;;5.30;;
24859;SDS011;12936;52.006;4.350;2024-01-25T02:17:53;27.67;;;4.77;;
24859;SDS011;12936;52.006;4.350;2024-01-25T02:20:23;32.10;;;4.80;;
24859;SDS011;12936;52.006;4.350;2024-01-25T02:22:55;34.40;;;5.23;;
24859;SDS011;12936;52.006;4.350;2024-01-25T02:25:24;33.27;;;5.13;;
24859;SDS011;12936;52.006;4.350;2024-01-25T02:27:52;42.20;;;5.77;;
24859;SDS011;12936;52.006;4.350;2024-01-25T02:30:21;35.90;;;5.03;;
24859;SDS011;12936;52.006;4.350;2024-01-25T02:32:50;41.60;;;6.23;;
24859;SDS011;12936;52.006;4.350;2024-01-25T02:35:19;35.47;;;5.60;;
24859;SDS011;12936;52.006;4.350;2024-01-25T02:37:47;42.67;;;5.80;;
24859;SDS011;12936;52.006;4.350;2024-01-25T02:40:19;42.67;;;5.60;;
24859;SDS011;12936;52.006;4.350;2024-01-25T02:42:47;33.20;;;4.97;;
24859;SDS011;12936;52.006;4.350;2024-01-25T02:45:16;40.13;;;6.27;;
24859;SDS011;12936;52.006;4.350;2024-01-25T02:47:45;38.37;;;5.40;;
24859;SDS011;12936;52.006;4.350;2024-01-25T02:50:14;38.40;;;5.33;;
24859;SDS011;12936;52.006;4.350;2024-01-25T02:52:43;43.47;;;5.93;;
24859;SDS011;12936;52.006;4.350;2024-01-25T02:55:12;37.87;;;5.53;;
24859;SDS011;12936;52.006;4.350;2024-01-25T02:57:42;32.03;;;4.73;;
24859;SDS011;12936;52.006;4.350;2024-01-25T03:00:11;40.40;;;5.90;;
24859;SDS011;12936;52.006;4.350;2024-01-25T03:02:40;32.87;;;5.90;;
24859;SDS011;12936;52.006;4.350;2024-01-25T03:05:08;41.23;;;5.30;;
24859;SDS011;12936;52.006;4.350;2024-01-25T03:07:37;38.70;;;5.50;;
24859;SDS011;12936;52.006;4.350;2024-01-25T03:10:06;37.00;;;5.60;;
24859;SDS011;12936;52.006;4.350;2024-01-25T03:12:35;36.27;;;5.30;;
24859;SDS011;12936;52.006;4.350;2024-01-25T03:15:07;41.90;;;5.43;;
24859;SDS011;12936;52.006;4.350;2024-01-25T03:17:38;42.13;;;5.83;;
24859;SDS011;12936;52.006;4.350;2024-01-25T03:20:07;30.83;;;4.57;;
24859;SDS011;12936;52.006;4.350;2024-01-25T03:22:37;24.43;;;4.30;;
24859;SDS011;12936;52.006;4.350;2024-01-25T03:25:06;44.47;;;5.70;;
24859;SDS011;12936;52.006;4.350;2024-01-25T03:27:36;28.67;;;4.63;;
24859;SDS011;12936;52.006;4.350;2024-01-25T03:30:08;35.40;;;5.53;;
24859;SDS011;12936;52.006;4.350;2024-01-25T03:32:38;33.60;;;5.23;;
24859;SDS011;12936;52.006;4.350;2024-01-25T03:35:07;26.67;;;4.87;;
24859;SDS011;12936;52.006;4.350;2024-01-25T03:37:37;26.83;;;5.00;;
24859;SDS011;12936;52.006;4.350;2024-01-25T03:40:06;30.57;;;4.53;;
24859;SDS011;12936;52.006;4.350;2024-01-25T03:42:35;32.00;;;5.17;;
24859;SDS011;12936;52.006;4.350;2024-01-25T03:45:04;31.63;;;4.60;;
24859;SDS011;12936;52.006;4.350;2024-01-25T03:47:35;28.13;;;4.40;;
24859;SDS011;12936;52.006;4.350;2024-01-25T03:50:04;30.10;;;5.17;;
24859;SDS011;12936;52.006;4.350;2024-01-25T03:52:33;32.33;;;5.03;;
24859;SDS011;12936;52.006;4.350;2024-01-25T03:55:02;28.30;;;4.77;;
24859;SDS011;12936;52.006;4.350;2024-01-25T03:57:31;30.83;;;5.27;;
24859;SDS011;12936;52.006;4.350;2024-01-25T03:59:59;34.40;;;5.30;;
24859;SDS011;12936;52.006;4.350;2024-01-25T04:02:32;28.80;;;5.50;;
24859;SDS011;12936;52.006;4.350;2024-01-25T04:05:02;33.57;;;5.50;;
24859;SDS011;12936;52.006;4.350;2024-01-25T04:07:31;29.43;;;4.87;;
24859;SDS011;12936;52.006;4.350;2024-01-25T04:10:02;29.90;;;4.97;;
24859;SDS011;12936;52.006;4.350;2024-01-25T04:12:33;35.30;;;5.43;;
24859;SDS011;12936;52.006;4.350;2024-01-25T04:15:02;32.80;;;5.37;;
24859;SDS011;12936;52.006;4.350;2024-01-25T04:17:30;31.67;;;4.33;;
24859;SDS011;12936;52.006;4.350;2024-01-25T04:19:59;30.33;;;4.50;;
24859;SDS011;12936;52.006;4.350;2024-01-25T04:22:30;25.37;;;4.87;;
24859;SDS011;12936;52.006;4.350;2024-01-25T04:24:58;33.93;;;5.00;;
24859;SDS011;12936;52.006;4.350;2024-01-25T04:27:27;37.33;;;4.57;;
24859;SDS011;12936;52.006;4.350;2024-01-25T04:29:55;33.57;;;4.93;;
24859;SDS011;12936;52.006;4.350;2024-01-25T04:32:24;35.10;;;5.47;;
24859;SDS011;12936;52.006;4.350;2024-01-25T04:34:52;23.47;;;4.90;;
24859;SDS011;12936;52.006;4.350;2024-01-25T04:37:23;32.93;;;5.13;;
24859;SDS011;12936;52.006;4.350;2024-01-25T04:39:53;29.33;;;5.07;;
24859;SDS011;12936;52.006;4.350;2024-01-25T04:42:23;27.50;;;4.93;;
24859;SDS011;12936;52.006;4.350;2024-01-25T04:44:54;23.13;;;4.50;;
24859;SDS011;12936;52.006;4.350;2024-01-25T04:47:23;30.60;;;5.27;;
24859;SDS011;12936;52.006;4.350;2024-01-25T04:49:52;29.27;;;4.70;;
24859;SDS011;12936;52.006;4.350;2024-01-25T04:52:21;25.50;;;4.87;;
24859;SDS011;12936;52.006;4.350;2024-01-25T04:54:50;34.47;;;4.93;;
24859;SDS011;12936;52.006;4.350;2024-01-25T04:57:20;30.67;;;4.73;;
24859;SDS011;12936;52.006;4.350;2024-01-25T04:59:50;25.03;;;4.40;;
24859;SDS011;12936;52.006;4.350;2024-01-25T05:02:19;26.37;;;5.17;;
24859;SDS011;12936;52.006;4.350;2024-01-25T05:04:47;30.53;;;5.10;;
24859;SDS011;12936;52.006;4.350;2024-01-25T05:07:16;30.73;;;5.53;;
24859;SDS011;12936;52.006;4.350;2024-01-25T05:09:44;27.40;;;4.93;;
24859;SDS011;12936;52.006;4.350;2024-01-25T05:12:14;30.03;;;5.23;;
24859;SDS011;12936;52.006;4.350;2024-01-25T05:14:42;31.73;;;5.10;;
24859;SDS011;12936;52.006;4.350;2024-01-25T05:17:11;29.47;;;4.80;;
24859;SDS011;12936;52.006;4.350;2024-01-25T05:19:39;43.40;;;6.17;;
24859;SDS011;12936;52.006;4.350;2024-01-25T05:22:08;24.73;;;5.37;;
24859;SDS011;12936;52.006;4.350;2024-01-25T05:24:36;29.43;;;5.07;;
24859;SDS011;12936;52.006;4.350;2024-01-25T05:27:04;25.73;;;4.80;;
24859;SDS011;12936;52.006;4.350;2024-01-25T05:29:35;30.87;;;4.90;;
24859;SDS011;12936;52.006;4.350;2024-01-25T05:32:04;30.60;;;5.07;;
24859;SDS011;12936;52.006;4.350;2024-01-25T05:34:33;28.17;;;4.60;;
24859;SDS011;12936;52.006;4.350;2024-01-25T05:37:07;27.17;;;4.53;;
24859;SDS011;12936;52.006;4.350;2024-01-25T05:39:36;29.63;;;4.83;;
24859;SDS011;12936;52.006;4.350;2024-01-25T05:42:05;30.80;;;6.37;;
24859;SDS011;12936;52.006;4.350;2024-01-25T05:44:39;36.37;;;5.77;;
24859;SDS011;12936;52.006;4.350;2024-01-25T05:47:07;30.40;;;5.10;;
24859;SDS011;12936;52.006;4.350;2024-01-25T05:49:36;27.57;;;4.37;;
24859;SDS011;12936;52.006;4.350;2024-01-25T05:52:05;31.07;;;5.27;;
24859;SDS011;12936;52.006;4.350;2024-01-25T05:54:36;31.10;;;5.10;;
24859;SDS011;12936;52.006;4.350;2024-01-25T05:57:05;28.53;;;4.97;;
24859;SDS011;12936;52.006;4.350;2024-01-25T05:59:33;24.40;;;4.80;;
24859;SDS011;12936;52.006;4.350;2024-01-25T06:02:04;22.20;;;4.43;;
24859;SDS011;12936;52.006;4.350;2024-01-25T06:04:33;35.23;;;5.83;;
24859;SDS011;12936;52.006;4.350;2024-01-25T06:07:03;24.93;;;5.57;;
24859;SDS011;12936;52.006;4.350;2024-01-25T06:09:32;29.43;;;6.37;;
24859;SDS011;12936;52.006;4.350;2024-01-25T06:12:01;24.03;;;4.70;;
24859;SDS011;12936;52.006;4.350;2024-01-25T06:14:31;24.77;;;5.07;;
24859;SDS011;12936;52.006;4.350;2024-01-25T06:17:00;28.17;;;5.00;;
24859;SDS011;12936;52.006;4.350;2024-01-25T06:19:31;28.83;;;5.30;;
24859;SDS011;12936;52.006;4.350;2024-01-25T06:22:01;34.90;;;6.93;;
24859;SDS011;12936;52.006;4.350;2024-01-25T06:24:32;33.53;;;6.50;;
24859;SDS011;12936;52.006;4.350;2024-01-25T06:27:01;24.20;;;5.47;;
24859;SDS011;12936;52.006;4.350;2024-01-25T06:29:30;26.40;;;6.47;;
24859;SDS011;12936;52.006;4.350;2024-01-25T06:31:58;33.03;;;6.10;;
24859;SDS011;12936;52.006;4.350;2024-01-25T06:34:34;26.93;;;6.10;;
24859;SDS011;12936;52.006;4.350;2024-01-25T06:37:02;21.57;;;5.43;;
24859;SDS011;12936;52.006;4.350;2024-01-25T06:39:31;23.10;;;5.03;;
24859;SDS011;12936;52.006;4.350;2024-01-25T06:42:00;34.47;;;6.63;;
24859;SDS011;12936;52.006;4.350;2024-01-25T06:44:30;26.17;;;5.40;;
24859;SDS011;12936;52.006;4.350;2024-01-25T06:46:58;27.07;;;5.97;;
24859;SDS011;12936;52.006;4.350;2024-01-25T06:49:31;35.30;;;6.17;;
24859;SDS011;12936;52.006;4.350;2024-01-25T06:52:01;27.73;;;5.73;;
24859;SDS011;12936;52.006;4.350;2024-01-25T06:54:33;31.80;;;6.40;;
24859;SDS011;12936;52.006;4.350;2024-01-25T06:57:37;34.07;;;6.00;;
24859;SDS011;12936;52.006;4.350;2024-01-25T07:00:08;37.30;;;6.50;;
24859;SDS011;12936;52.006;4.350;2024-01-25T07:02:40;28.70;;;5.87;;
24859;SDS011;12936;52.006;4.350;2024-01-25T07:05:09;35.93;;;6.40;;
24859;SDS011;12936;52.006;4.350;2024-01-25T07:07:39;23.27;;;5.30;;
24859;SDS011;12936;52.006;4.350;2024-01-25T07:10:08;36.67;;;6.30;;
24859;SDS011;12936;52.006;4.350;2024-01-25T07:12:39;31.13;;;6.00;;
24859;SDS011;12936;52.006;4.350;2024-01-25T07:15:08;35.17;;;6.03;;
24859;SDS011;12936;52.006;4.350;2024-01-25T07:17:38;37.73;;;6.07;;
24859;SDS011;12936;52.006;4.350;2024-01-25T07:20:07;31.80;;;6.10;;
24859;SDS011;12936;52.006;4.350;2024-01-25T07:22:36;31.80;;;5.37;;
24859;SDS011;12936;52.006;4.350;2024-01-25T07:25:08;34.10;;;6.47;;
24859;SDS011;12936;52.006;4.350;2024-01-25T07:27:36;41.27;;;6.50;;
24859;SDS011;12936;52.006;4.350;2024-01-25T07:30:05;38.00;;;7.17;;
24859;SDS011;12936;52.006;4.350;2024-01-25T07:32:36;31.87;;;6.73;;
24859;SDS011;12936;52.006;4.350;2024-01-25T07:35:05;35.80;;;5.87;;
24859;SDS011;12936;52.006;4.350;2024-01-25T07:37:36;40.20;;;7.33;;
24859;SDS011;12936;52.006;4.350;2024-01-25T07:43:19;35.00;;;6.70;;
24859;SDS011;12936;52.006;4.350;2024-01-25T07:46:01;29.83;;;5.90;;
24859;SDS011;12936;52.006;4.350;2024-01-25T07:48:30;32.47;;;6.57;;
24859;SDS011;12936;52.006;4.350;2024-01-25T07:51:01;29.80;;;5.87;;
24859;SDS011;12936;52.006;4.350;2024-01-25T07:53:30;34.13;;;6.37;;
24859;SDS011;12936;52.006;4.350;2024-01-25T07:55:58;31.50;;;6.63;;
24859;SDS011;12936;52.006;4.350;2024-01-25T07:58:28;26.60;;;6.57;;
24859;SDS011;12936;52.006;4.350;2024-01-25T08:00:58;32.90;;;6.37;;
24859;SDS011;12936;52.006;4.350;2024-01-25T08:03:26;37.37;;;6.67;;
24859;SDS011;12936;52.006;4.350;2024-01-25T08:05:58;29.70;;;5.87;;
24859;SDS011;12936;52.006;4.350;2024-01-25T08:08:26;34.37;;;5.97;;
24859;SDS011;12936;52.006;4.350;2024-01-25T08:10:55;35.50;;;6.10;;
24859;SDS011;12936;52.006;4.350;2024-01-25T08:13:23;27.87;;;6.00;;
24859;SDS011;12936;52.006;4.350;2024-01-25T08:16:00;33.70;;;7.23;;
24859;SDS011;12936;52.006;4.350;2024-01-25T08:18:28;44.07;;;6.40;;
24859;SDS011;12936;52.006;4.350;2024-01-25T08:20:57;29.47;;;6.37;;
24859;SDS011;12936;52.006;4.350;2024-01-25T08:23:27;26.33;;;5.60;;
24859;SDS011;12936;52.006;4.350;2024-01-25T08:25:55;27.10;;;5.87;;
24859;SDS011;12936;52.006;4.350;2024-01-25T08:28:23;36.67;;;6.67;;
24859;SDS011;12936;52.006;4.350;2024-01-25T08:30:52;33.00;;;6.30;;
24859;SDS011;12936;52.006;4.350;2024-01-25T08:33:22;31.83;;;6.73;;
24859;SDS011;12936;52.006;4.350;2024-01-25T08:35:51;33.67;;;6.57;;
24859;SDS011;12936;52.006;4.350;2024-01-25T08:38:20;32.97;;;5.63;;
24859;SDS011;12936;52.006;4.350;2024-01-25T08:40:48;25.97;;;5.87;;
24859;SDS011;12936;52.006;4.350;2024-01-25T08:43:16;33.53;;;5.90;;
24859;SDS011;12936;52.006;4.350;2024-01-25T08:45:44;30.10;;;5.47;;
24859;SDS011;12936;52.006;4.350;2024-01-25T08:48:12;32.90;;;5.73;;
24859;SDS011;12936;52.006;4.350;2024-01-25T08:50:43;33.13;;;6.53;;
24859;SDS011;12936;52.006;4.350;2024-01-25T08:53:11;38.60;;;6.33;;
24859;SDS011;12936;52.006;4.350;2024-01-25T08:55:40;35.00;;;5.93;;
24859;SDS011;12936;52.006;4.350;2024-01-25T08:58:07;27.17;;;6.30;;
24859;SDS011;12936;52.006;4.350;2024-01-25T09:00:36;32.80;;;5.83;;
24859;SDS011;12936;52.006;4.350;2024-01-25T09:03:04;25.80;;;5.53;;
24859;SDS011;12936;52.006;4.350;2024-01-25T09:05:32;33.87;;;6.47;;
24859;SDS011;12936;52.006;4.350;2024-01-25T09:08:06;28.43;;;5.50;;
24859;SDS011;12936;52.006;4.350;2024-01-25T09:10:37;29.87;;;5.73;;
24859;SDS011;12936;52.006;4.350;2024-01-25T09:13:06;37.23;;;6.10;;
24859;SDS011;12936;52.006;4.350;2024-01-25T09:15:34;32.80;;;6.40;;
24859;SDS011;12936;52.006;4.350;2024-01-25T09:18:03;31.80;;;6.07;;
24859;SDS011;12936;52.006;4.350;2024-01-25T09:20:32;40.67;;;7.43;;
24859;SDS011;12936;52.006;4.350;2024-01-25T09:23:00;37.60;;;7.10;;
24859;SDS011;12936;52.006;4.350;2024-01-25T09:25:30;28.97;;;7.33;;
24859;SDS011;12936;52.006;4.350;2024-01-25T09:27:58;34.40;;;7.73;;
24859;SDS011;12936;52.006;4.350;2024-01-25T09:30:27;30.30;;;7.17;;
24859;SDS011;12936;52.006;4.350;2024-01-25T09:32:55;32.57;;;7.73;;
24859;SDS011;12936;52.006;4.350;2024-01-25T09:35:24;40.63;;;7.83;;
24859;SDS011;12936;52.006;4.350;2024-01-25T09:37:53;38.80;;;8.47;;
24859;SDS011;12936;52.006;4.350;2024-01-25T09:40:21;39.17;;;8.27;;
24859;SDS011;12936;52.006;4.350;2024-01-25T09:42:52;41.87;;;8.40;;
24859;SDS011;12936;52.006;4.350;2024-01-25T09:45:20;45.27;;;7.77;;
24859;SDS011;12936;52.006;4.350;2024-01-25T09:47:49;46.80;;;8.37;;
24859;SDS011;12936;52.006;4.350;2024-01-25T09:50:17;37.00;;;7.83;;
24859;SDS011;12936;52.006;4.350;2024-01-25T09:52:47;33.37;;;6.33;;
24859;SDS011;12936;52.006;4.350;2024-01-25T09:55:21;26.73;;;7.03;;
24859;SDS011;12936;52.006;4.350;2024-01-25T09:57:54;37.93;;;7.57;;
24859;SDS011;12936;52.006;4.350;2024-01-25T10:00:23;41.30;;;7.67;;
24859;SDS011;12936;52.006;4.350;2024-01-25T10:02:51;27.63;;;6.33;;
24859;SDS011;12936;52.006;4.350;2024-01-25T10:05:20;30.23;;;7.27;;
24859;SDS011;12936;52.006;4.350;2024-01-25T10:07:51;30.97;;;7.33;;
24859;SDS011;12936;52.006;4.350;2024-01-25T10:10:20;34.10;;;7.20;;
24859;SDS011;12936;52.006;4.350;2024-01-25T10:12:49;32.50;;;7.17;;
24859;SDS011;12936;52.006;4.350;2024-01-25T10:15:18;35.13;;;6.80;;
24859;SDS011;12936;52.006;4.350;2024-01-25T10:17:46;28.03;;;6.40;;
24859;SDS011;12936;52.006;4.350;2024-01-25T10:20:35;45.57;;;7.67;;
24859;SDS011;12936;52.006;4.350;2024-01-25T10:23:23;28.90;;;6.53;;
24859;SDS011;12936;52.006;4.350;2024-01-25T10:25:52;30.77;;;6.73;;
24859;SDS011;12936;52.006;4.350;2024-01-25T10:28:21;40.87;;;8.10;;
24859;SDS011;12936;52.006;4.350;2024-01-25T10:30:56;35.60;;;8.23;;
24859;SDS011;12936;52.006;4.350;2024-01-25T10:33:30;37.37;;;7.90;;
24859;SDS011;12936;52.006;4.350;2024-01-25T10:36:01;32.83;;;6.93;;
24859;SDS011;12936;52.006;4.350;2024-01-25T10:38:30;35.57;;;8.80;;
24859;SDS011;12936;52.006;4.350;2024-01-25T10:40:59;32.60;;;7.63;;
24859;SDS011;12936;52.006;4.350;2024-01-25T10:43:29;35.27;;;7.87;;
24859;SDS011;12936;52.006;4.350;2024-01-25T10:46:00;39.10;;;8.40;;
24859;SDS011;12936;52.006;4.350;2024-01-25T10:48:31;38.17;;;8.63;;
24859;SDS011;12936;52.006;4.350;2024-01-25T10:50:59;33.07;;;7.70;;
24859;SDS011;12936;52.006;4.350;2024-01-25T10:53:30;31.00;;;8.17;;
24859;SDS011;12936;52.006;4.350;2024-01-25T10:56:00;41.67;;;8.50;;
24859;SDS011;12936;52.006;4.350;2024-01-25T10:58:32;39.70;;;7.20;;
24859;SDS011;12936;52.006;4.350;2024-01-25T11:01:07;36.30;;;7.40;;
24859;SDS011;12936;52.006;4.350;2024-01-25T11:03:42;38.33;;;7.13;;
24859;SDS011;12936;52.006;4.350;2024-01-25T11:06:13;44.37;;;7.73;;
24859;SDS011;12936;52.006;4.350;2024-01-25T11:08:42;34.97;;;7.00;;
24859;SDS011;12936;52.006;4.350;2024-01-25T11:11:10;38.17;;;7.93;;
24859;SDS011;12936;52.006;4.350;2024-01-25T11:13:41;30.37;;;7.13;;
24859;SDS011;12936;52.006;4.350;2024-01-25T11:16:13;38.53;;;7.50;;
24859;SDS011;12936;52.006;4.350;2024-01-25T11:18:48;36.40;;;6.97;;
24859;SDS011;12936;52.006;4.350;2024-01-25T11:21:27;34.57;;;6.80;;
24859;SDS011;12936;52.006;4.350;2024-01-25T11:24:00;38.73;;;7.17;;
24859;SDS011;12936;52.006;4.350;2024-01-25T11:26:29;33.77;;;7.87;;
24859;SDS011;12936;52.006;4.350;2024-01-25T11:28:59;39.60;;;8.30;;
24859;SDS011;12936;52.006;4.350;2024-01-25T11:31:29;30.70;;;7.37;;
24859;SDS011;12936;52.006;4.350;2024-01-25T11:33:58;35.33;;;8.07;;
24859;SDS011;12936;52.006;4.350;2024-01-25T11:36:27;39.27;;;7.70;;
24859;SDS011;12936;52.006;4.350;2024-01-25T11:38:56;39.03;;;8.07;;
24859;SDS011;12936;52.006;4.350;2024-01-25T11:41:25;31.93;;;6.60;;
24859;SDS011;12936;52.006;4.350;2024-01-25T11:43:53;37.90;;;8.17;;
24859;SDS011;12936;52.006;4.350;2024-01-25T11:46:22;42.37;;;7.90;;
24859;SDS011;12936;52.006;4.350;2024-01-25T11:48:52;31.47;;;7.90;;
24859;SDS011;12936;52.006;4.350;2024-01-25T11:51:21;37.20;;;7.70;;
24859;SDS011;12936;52.006;4.350;2024-01-25T11:53:49;36.03;;;7.73;;
24859;SDS011;12936;52.006;4.350;2024-01-25T11:56:17;32.90;;;7.40;;
24859;SDS011;12936;52.006;4.350;2024-01-25T11:58:49;30.40;;;7.13;;
24859;SDS011;12936;52.006;4.350;2024-01-25T12:01:18;44.13;;;8.97;;
24859;SDS011;12936;52.006;4.350;2024-01-25T12:03:48;44.43;;;8.80;;
24859;SDS011;12936;52.006;4.350;2024-01-25T12:06:18;38.03;;;8.13;;
24859;SDS011;12936;52.006;4.350;2024-01-25T12:08:47;35.40;;;8.57;;
24859;SDS011;12936;52.006;4.350;2024-01-25T12:11:18;30.93;;;8.00;;
24859;SDS011;12936;52.006;4.350;2024-01-25T12:13:49;39.00;;;8.03;;
24859;SDS011;12936;52.006;4.350;2024-01-25T12:16:17;35.93;;;8.47;;
24859;SDS011;12936;52.006;4.350;2024-01-25T12:18:46;42.00;;;8.73;;
24859;SDS011;12936;52.006;4.350;2024-01-25T12:21:18;30.53;;;8.40;;
24859;SDS011;12936;52.006;4.350;2024-01-25T12:23:46;29.97;;;6.93;;
24859;SDS011;12936;52.006;4.350;2024-01-25T12:26:14;37.27;;;7.60;;
24859;SDS011;12936;52.006;4.350;2024-01-25T12:29:03;37.87;;;6.43;;
24859;SDS011;12936;52.006;4.350;2024-01-25T12:31:32;36.80;;;7.30;;
24859;SDS011;12936;52.006;4.350;2024-01-25T12:34:01;27.87;;;6.77;;
24859;SDS011;12936;52.006;4.350;2024-01-25T12:36:32;29.90;;;6.37;;
24859;SDS011;12936;52.006;4.350;2024-01-25T12:39:00;33.97;;;7.10;;
24859;SDS011;12936;52.006;4.350;2024-01-25T12:41:29;33.10;;;7.10;;
24859;SDS011;12936;52.006;4.350;2024-01-25T12:44:18;33.67;;;7.47;;
24859;SDS011;12936;52.006;4.350;2024-01-25T12:46:46;36.83;;;7.70;;
24859;SDS011;12936;52.006;4.350;2024-01-25T12:49:15;33.17;;;7.63;;
24859;SDS011;12936;52.006;4.350;2024-01-25T12:51:44;42.10;;;8.73;;
24859;SDS011;12936;52.006;4.350;2024-01-25T12:54:17;31.93;;;7.50;;
24859;SDS011;12936;52.006;4.350;2024-01-25T12:56:45;35.57;;;7.57;;
24859;SDS011;12936;52.006;4.350;2024-01-25T12:59:14;37.10;;;8.87;;
24859;SDS011;12936;52.006;4.350;2024-01-25T13:01:42;41.33;;;8.33;;
24859;SDS011;12936;52.006;4.350;2024-01-25T13:04:10;36.93;;;6.60;;
24859;SDS011;12936;52.006;4.350;2024-01-25T13:06:39;38.97;;;7.20;;
24859;SDS011;12936;52.006;4.350;2024-01-25T13:09:09;36.97;;;7.77;;
24859;SDS011;12936;52.006;4.350;2024-01-25T13:11:37;31.93;;;7.00;;
24859;SDS011;12936;52.006;4.350;2024-01-25T13:14:08;37.53;;;7.83;;
24859;SDS011;12936;52.006;4.350;2024-01-25T13:16:36;32.73;;;7.93;;
24859;SDS011;12936;52.006;4.350;2024-01-25T13:19:04;41.43;;;8.60;;
24859;SDS011;12936;52.006;4.350;2024-01-25T13:21:33;42.30;;;9.37;;
24859;SDS011;12936;52.006;4.350;2024-01-25T13:24:01;33.83;;;8.20;;
24859;SDS011;12936;52.006;4.350;2024-01-25T13:26:31;31.07;;;8.43;;
24859;SDS011;12936;52.006;4.350;2024-01-25T13:28:59;28.93;;;8.87;;
24859;SDS011;12936;52.006;4.350;2024-01-25T13:31:27;27.77;;;8.40;;
24859;SDS011;12936;52.006;4.350;2024-01-25T13:33:56;31.10;;;10.20;;
24859;SDS011;12936;52.006;4.350;2024-01-25T13:36:25;35.10;;;9.90;;
24859;SDS011;12936;52.006;4.350;2024-01-25T13:38:53;27.00;;;8.93;;
24859;SDS011;12936;52.006;4.350;2024-01-25T13:41:21;39.27;;;10.97;;
24859;SDS011;12936;52.006;4.350;2024-01-25T13:43:51;30.07;;;9.77;;
24859;SDS011;12936;52.006;4.350;2024-01-25T13:46:20;34.00;;;10.33;;
24859;SDS011;12936;52.006;4.350;2024-01-25T13:48:51;33.07;;;9.60;;
24859;SDS011;12936;52.006;4.350;2024-01-25T13:51:19;31.13;;;11.07;;
24859;SDS011;12936;52.006;4.350;2024-01-25T13:53:48;34.23;;;10.47;;
24859;SDS011;12936;52.006;4.350;2024-01-25T13:56:17;34.33;;;9.83;;
24859;SDS011;12936;52.006;4.350;2024-01-25T13:58:45;34.70;;;9.83;;
24859;SDS011;12936;52.006;4.350;2024-01-25T14:01:15;34.20;;;10.77;;
24859;SDS011;12936;52.006;4.350;2024-01-25T14:03:44;36.20;;;11.07;;
24859;SDS011;12936;52.006;4.350;2024-01-25T14:06:15;29.93;;;10.00;;
24859;SDS011;12936;52.006;4.350;2024-01-25T14:08:44;26.57;;;9.57;;
24859;SDS011;12936;52.006;4.350;2024-01-25T14:11:15;29.67;;;9.80;;
24859;SDS011;12936;52.006;4.350;2024-01-25T14:13:44;29.13;;;9.93;;
24859;SDS011;12936;52.006;4.350;2024-01-25T14:16:12;29.03;;;11.10;;
24859;SDS011;12936;52.006;4.350;2024-01-25T14:18:45;30.63;;;11.97;;
24859;SDS011;12936;52.006;4.350;2024-01-25T14:21:15;33.73;;;12.30;;
24859;SDS011;12936;52.006;4.350;2024-01-25T14:23:47;30.27;;;12.03;;
24859;SDS011;12936;52.006;4.350;2024-01-25T14:26:16;36.70;;;14.50;;
24859;SDS011;12936;52.006;4.350;2024-01-25T14:28:44;37.33;;;12.97;;
24859;SDS011;12936;52.006;4.350;2024-01-25T14:31:13;34.87;;;14.70;;
24859;SDS011;12936;52.006;4.350;2024-01-25T14:33:41;37.00;;;15.03;;
24859;SDS011;12936;52.006;4.350;2024-01-25T14:36:13;43.37;;;16.73;;
24859;SDS011;12936;52.006;4.350;2024-01-25T14:38:41;36.80;;;16.03;;
24859;SDS011;12936;52.006;4.350;2024-01-25T14:41:10;39.17;;;17.40;;
24859;SDS011;12936;52.006;4.350;2024-01-25T14:43:38;43.13;;;17.43;;
24859;SDS011;12936;52.006;4.350;2024-01-25T14:46:07;39.30;;;18.33;;
24859;SDS011;12936;52.006;4.350;2024-01-25T14:48:35;39.43;;;18.63;;
24859;SDS011;12936;52.006;4.350;2024-01-25T14:51:03;44.77;;;19.30;;
24859;SDS011;12936;52.006;4.350;2024-01-25T14:53:33;42.37;;;20.93;;